sensor_id;sensor_type;location;lat;lon;timestamp;P1;durP1;ratioP1;P2;durP2;ratioP2
23561;SDS011;11959;49.418;8.728;2023-02-28T00:00:51;3.33;;;2.10;;
23561;SDS011;11959;49.418;8.728;2023-02-28T00:03:17;3.45;;;2.05;;
23561;SDS011;11959;49.418;8.728;2023-02-28T00:05:43;2.72;;;1.98;;
23561;SDS011;11959;49.418;8.728;2023-02-28T00:08:08;3.60;;;2.28;;
23561;SDS011;11959;49.418;8.728;2023-02-28T00:10:34;3.95;;;2.25;;
23561;SDS011;11959;49.418;8.728;2023-02-28T00:13:02;4.60;;;2.15;;
23561;SDS011;11959;49.418;8.728;2023-02-28T00:15:30;3.67;;;2.00;;
23561;SDS011;11959;49.418;8.728;2023-02-28T00:17:56;3.95;;;2.17;;
23561;SDS011;11959;49.418;8.728;2023-02-28T00:20:22;3.30;;;2.40;;
23561;SDS011;11959;49.418;8.728;2023-02-28T00:22:50;3.67;;;2.28;;
23561;SDS011;11959;49.418;8.728;2023-02-28T00:25:17;4.10;;;2.08;;
23561;SDS011;11959;49.418;8.728;2023-02-28T00:27:46;4.90;;;2.28;;
23561;SDS011;11959;49.418;8.728;2023-02-28T00:30:12;2.75;;;2.05;;
23561;SDS011;11959;49.418;8.728;2023-02-28T00:32:40;3.58;;;2.03;;
23561;SDS011;11959;49.418;8.728;2023-02-28T00:35:06;4.70;;;2.20;;
23561;SDS011;11959;49.418;8.728;2023-02-28T00:37:32;3.88;;;2.25;;
23561;SDS011;11959;49.418;8.728;2023-02-28T00:39:58;3.13;;;2.03;;
23561;SDS011;11959;49.418;8.728;2023-02-28T00:42:24;4.28;;;2.38;;
23561;SDS011;11959;49.418;8.728;2023-02-28T00:44:50;3.67;;;2.42;;
23561;SDS011;11959;49.418;8.728;2023-02-28T00:47:15;3.75;;;2.30;;
23561;SDS011;11959;49.418;8.728;2023-02-28T00:49:41;3.55;;;2.30;;
23561;SDS011;11959;49.418;8.728;2023-02-28T00:52:07;3.40;;;2.20;;
23561;SDS011;11959;49.418;8.728;2023-02-28T00:54:32;4.68;;;2.45;;
23561;SDS011;11959;49.418;8.728;2023-02-28T00:56:58;3.22;;;2.20;;
23561;SDS011;11959;49.418;8.728;2023-02-28T00:59:24;3.40;;;2.50;;
23561;SDS011;11959;49.418;8.728;2023-02-28T01:01:50;4.00;;;2.40;;
23561;SDS011;11959;49.418;8.728;2023-02-28T01:04:16;3.35;;;2.15;;
23561;SDS011;11959;49.418;8.728;2023-02-28T01:06:42;3.28;;;2.20;;
23561;SDS011;11959;49.418;8.728;2023-02-28T01:09:08;4.55;;;2.47;;
23561;SDS011;11959;49.418;8.728;2023-02-28T01:11:33;3.70;;;2.40;;
23561;SDS011;11959;49.418;8.728;2023-02-28T01:14:00;4.43;;;2.72;;
23561;SDS011;11959;49.418;8.728;2023-02-28T01:16:27;3.72;;;2.42;;
23561;SDS011;11959;49.418;8.728;2023-02-28T01:18:53;4.70;;;2.60;;
23561;SDS011;11959;49.418;8.728;2023-02-28T01:21:19;4.47;;;2.42;;
23561;SDS011;11959;49.418;8.728;2023-02-28T01:23:48;3.95;;;2.40;;
23561;SDS011;11959;49.418;8.728;2023-02-28T01:26:15;4.80;;;2.33;;
23561;SDS011;11959;49.418;8.728;2023-02-28T01:28:43;3.95;;;2.33;;
23561;SDS011;11959;49.418;8.728;2023-02-28T01:31:09;3.53;;;2.40;;
23561;SDS011;11959;49.418;8.728;2023-02-28T01:33:35;4.40;;;2.53;;
23561;SDS011;11959;49.418;8.728;2023-02-28T01:36:03;3.20;;;2.50;;
23561;SDS011;11959;49.418;8.728;2023-02-28T01:38:29;4.10;;;2.67;;
23561;SDS011;11959;49.418;8.728;2023-02-28T01:40:54;5.00;;;2.67;;
23561;SDS011;11959;49.418;8.728;2023-02-28T01:45:46;3.00;;;2.30;;
23561;SDS011;11959;49.418;8.728;2023-02-28T01:48:11;4.15;;;2.60;;
23561;SDS011;11959;49.418;8.728;2023-02-28T01:50:39;4.75;;;2.75;;
23561;SDS011;11959;49.418;8.728;2023-02-28T01:53:07;3.55;;;2.50;;
23561;SDS011;11959;49.418;8.728;2023-02-28T01:55:37;4.78;;;2.80;;
23561;SDS011;11959;49.418;8.728;2023-02-28T01:58:05;6.03;;;3.05;;
23561;SDS011;11959;49.418;8.728;2023-02-28T02:00:34;5.45;;;2.70;;
23561;SDS011;11959;49.418;8.728;2023-02-28T02:03:01;6.38;;;2.72;;
23561;SDS011;11959;49.418;8.728;2023-02-28T02:05:34;4.20;;;2.60;;
23561;SDS011;11959;49.418;8.728;2023-02-28T02:08:04;3.90;;;2.72;;
23561;SDS011;11959;49.418;8.728;2023-02-28T02:13:25;4.18;;;2.60;;
23561;SDS011;11959;49.418;8.728;2023-02-28T02:22:06;4.32;;;2.90;;
23561;SDS011;11959;49.418;8.728;2023-02-28T02:24:59;4.45;;;2.72;;
23561;SDS011;11959;49.418;8.728;2023-02-28T02:33:27;3.90;;;2.97;;
23561;SDS011;11959;49.418;8.728;2023-02-28T02:41:33;4.82;;;3.13;;
23561;SDS011;11959;49.418;8.728;2023-02-28T02:46:51;5.00;;;3.45;;
23561;SDS011;11959;49.418;8.728;2023-02-28T02:49:26;5.05;;;3.00;;
23561;SDS011;11959;49.418;8.728;2023-02-28T02:51:57;6.60;;;3.72;;
23561;SDS011;11959;49.418;8.728;2023-02-28T02:54:29;4.35;;;3.20;;
23561;SDS011;11959;49.418;8.728;2023-02-28T02:56:57;5.28;;;2.88;;
23561;SDS011;11959;49.418;8.728;2023-02-28T02:59:28;5.90;;;3.30;;
23561;SDS011;11959;49.418;8.728;2023-02-28T03:01:56;4.68;;;3.38;;
23561;SDS011;11959;49.418;8.728;2023-02-28T03:04:28;4.93;;;3.25;;
23561;SDS011;11959;49.418;8.728;2023-02-28T03:06:58;5.13;;;3.28;;
23561;SDS011;11959;49.418;8.728;2023-02-28T03:09:24;6.35;;;3.40;;
23561;SDS011;11959;49.418;8.728;2023-02-28T03:11:51;5.68;;;3.55;;
23561;SDS011;11959;49.418;8.728;2023-02-28T03:14:29;5.93;;;3.13;;
23561;SDS011;11959;49.418;8.728;2023-02-28T03:23:00;6.17;;;3.73;;
23561;SDS011;11959;49.418;8.728;2023-02-28T03:28:29;6.30;;;4.10;;
23561;SDS011;11959;49.418;8.728;2023-02-28T03:31:16;5.47;;;3.33;;
23561;SDS011;11959;49.418;8.728;2023-02-28T03:34:24;6.03;;;3.53;;
23561;SDS011;11959;49.418;8.728;2023-02-28T03:37:02;4.93;;;3.70;;
23561;SDS011;11959;49.418;8.728;2023-02-28T03:42:37;7.53;;;3.83;;
23561;SDS011;11959;49.418;8.728;2023-02-28T03:45:16;6.00;;;3.72;;
23561;SDS011;11959;49.418;8.728;2023-02-28T03:50:35;5.10;;;3.58;;
23561;SDS011;11959;49.418;8.728;2023-02-28T03:55:48;6.28;;;3.88;;
23561;SDS011;11959;49.418;8.728;2023-02-28T03:58:37;6.75;;;4.00;;
23561;SDS011;11959;49.418;8.728;2023-02-28T04:01:45;6.57;;;3.90;;
23561;SDS011;11959;49.418;8.728;2023-02-28T04:04:13;5.75;;;3.67;;
23561;SDS011;11959;49.418;8.728;2023-02-28T04:06:41;5.10;;;3.72;;
23561;SDS011;11959;49.418;8.728;2023-02-28T04:09:08;5.25;;;4.13;;
23561;SDS011;11959;49.418;8.728;2023-02-28T04:11:40;6.20;;;3.90;;
23561;SDS011;11959;49.418;8.728;2023-02-28T04:14:10;6.35;;;4.18;;
23561;SDS011;11959;49.418;8.728;2023-02-28T04:16:39;6.80;;;4.20;;
23561;SDS011;11959;49.418;8.728;2023-02-28T04:19:06;6.40;;;4.45;;
23561;SDS011;11959;49.418;8.728;2023-02-28T04:21:35;6.53;;;4.22;;
23561;SDS011;11959;49.418;8.728;2023-02-28T04:24:03;7.28;;;4.50;;
23561;SDS011;11959;49.418;8.728;2023-02-28T04:26:30;5.47;;;4.38;;
23561;SDS011;11959;49.418;8.728;2023-02-28T04:28:57;7.53;;;4.13;;
23561;SDS011;11959;49.418;8.728;2023-02-28T04:31:23;5.63;;;4.28;;
23561;SDS011;11959;49.418;8.728;2023-02-28T04:33:48;6.22;;;4.30;;
23561;SDS011;11959;49.418;8.728;2023-02-28T04:36:14;5.28;;;4.05;;
23561;SDS011;11959;49.418;8.728;2023-02-28T04:38:42;6.78;;;3.95;;
23561;SDS011;11959;49.418;8.728;2023-02-28T04:41:09;5.90;;;4.30;;
23561;SDS011;11959;49.418;8.728;2023-02-28T04:43:34;6.97;;;4.20;;
23561;SDS011;11959;49.418;8.728;2023-02-28T04:46:01;8.35;;;4.38;;
23561;SDS011;11959;49.418;8.728;2023-02-28T04:48:29;6.68;;;4.18;;
23561;SDS011;11959;49.418;8.728;2023-02-28T04:51:00;7.25;;;4.20;;
23561;SDS011;11959;49.418;8.728;2023-02-28T04:53:27;6.15;;;4.00;;
23561;SDS011;11959;49.418;8.728;2023-02-28T04:55:54;5.97;;;4.13;;
23561;SDS011;11959;49.418;8.728;2023-02-28T04:58:20;6.05;;;4.00;;
23561;SDS011;11959;49.418;8.728;2023-02-28T05:00:48;7.88;;;4.03;;
23561;SDS011;11959;49.418;8.728;2023-02-28T05:03:14;7.05;;;4.15;;
23561;SDS011;11959;49.418;8.728;2023-02-28T05:05:40;7.55;;;4.93;;
23561;SDS011;11959;49.418;8.728;2023-02-28T05:08:05;6.13;;;4.03;;
23561;SDS011;11959;49.418;8.728;2023-02-28T05:10:31;5.32;;;3.90;;
23561;SDS011;11959;49.418;8.728;2023-02-28T05:12:57;6.10;;;4.07;;
23561;SDS011;11959;49.418;8.728;2023-02-28T05:15:23;6.15;;;3.53;;
23561;SDS011;11959;49.418;8.728;2023-02-28T05:17:49;7.10;;;4.00;;
23561;SDS011;11959;49.418;8.728;2023-02-28T05:20:15;8.73;;;4.05;;
23561;SDS011;11959;49.418;8.728;2023-02-28T05:22:41;6.07;;;4.13;;
23561;SDS011;11959;49.418;8.728;2023-02-28T05:25:10;6.25;;;3.60;;
23561;SDS011;11959;49.418;8.728;2023-02-28T05:27:38;7.30;;;4.38;;
23561;SDS011;11959;49.418;8.728;2023-02-28T05:30:05;7.55;;;4.97;;
23561;SDS011;11959;49.418;8.728;2023-02-28T05:32:35;6.63;;;4.35;;
23561;SDS011;11959;49.418;8.728;2023-02-28T05:35:02;6.22;;;4.13;;
23561;SDS011;11959;49.418;8.728;2023-02-28T05:37:28;8.02;;;4.95;;
23561;SDS011;11959;49.418;8.728;2023-02-28T05:39:53;7.35;;;4.78;;
23561;SDS011;11959;49.418;8.728;2023-02-28T05:42:19;6.60;;;4.07;;
23561;SDS011;11959;49.418;8.728;2023-02-28T05:44:44;8.18;;;4.78;;
23561;SDS011;11959;49.418;8.728;2023-02-28T05:47:10;6.22;;;4.05;;
23561;SDS011;11959;49.418;8.728;2023-02-28T05:49:39;8.10;;;4.90;;
23561;SDS011;11959;49.418;8.728;2023-02-28T05:52:04;7.18;;;4.78;;
23561;SDS011;11959;49.418;8.728;2023-02-28T05:54:30;37.58;;;20.23;;
23561;SDS011;11959;49.418;8.728;2023-02-28T05:56:56;15.85;;;9.32;;
23561;SDS011;11959;49.418;8.728;2023-02-28T05:59:21;9.48;;;5.80;;
23561;SDS011;11959;49.418;8.728;2023-02-28T06:01:47;11.70;;;7.20;;
23561;SDS011;11959;49.418;8.728;2023-02-28T06:04:13;20.70;;;11.88;;
23561;SDS011;11959;49.418;8.728;2023-02-28T06:06:46;45.10;;;22.50;;
23561;SDS011;11959;49.418;8.728;2023-02-28T06:09:12;7.85;;;5.90;;
23561;SDS011;11959;49.418;8.728;2023-02-28T06:11:38;17.27;;;10.95;;
23561;SDS011;11959;49.418;8.728;2023-02-28T06:14:05;7.70;;;4.40;;
23561;SDS011;11959;49.418;8.728;2023-02-28T06:16:31;6.00;;;4.22;;
23561;SDS011;11959;49.418;8.728;2023-02-28T06:19:00;6.30;;;4.78;;
23561;SDS011;11959;49.418;8.728;2023-02-28T06:21:28;6.63;;;4.78;;
23561;SDS011;11959;49.418;8.728;2023-02-28T06:23:54;7.47;;;4.32;;
23561;SDS011;11959;49.418;8.728;2023-02-28T06:26:21;6.53;;;4.50;;
23561;SDS011;11959;49.418;8.728;2023-02-28T06:28:47;6.90;;;4.57;;
23561;SDS011;11959;49.418;8.728;2023-02-28T06:31:14;7.38;;;4.25;;
23561;SDS011;11959;49.418;8.728;2023-02-28T06:33:41;6.50;;;4.60;;
23561;SDS011;11959;49.418;8.728;2023-02-28T06:36:08;6.38;;;4.32;;
23561;SDS011;11959;49.418;8.728;2023-02-28T06:38:35;6.35;;;4.55;;
23561;SDS011;11959;49.418;8.728;2023-02-28T06:41:01;8.38;;;5.30;;
23561;SDS011;11959;49.418;8.728;2023-02-28T06:43:29;6.43;;;4.93;;
23561;SDS011;11959;49.418;8.728;2023-02-28T06:45:57;7.18;;;4.75;;
23561;SDS011;11959;49.418;8.728;2023-02-28T06:48:25;6.80;;;4.53;;
23561;SDS011;11959;49.418;8.728;2023-02-28T06:50:51;6.95;;;4.93;;
23561;SDS011;11959;49.418;8.728;2023-02-28T06:53:17;6.47;;;4.70;;
23561;SDS011;11959;49.418;8.728;2023-02-28T06:55:42;7.50;;;5.10;;
23561;SDS011;11959;49.418;8.728;2023-02-28T06:58:08;6.90;;;4.60;;
23561;SDS011;11959;49.418;8.728;2023-02-28T07:00:44;7.93;;;5.10;;
23561;SDS011;11959;49.418;8.728;2023-02-28T07:03:11;8.05;;;4.72;;
23561;SDS011;11959;49.418;8.728;2023-02-28T07:05:38;6.00;;;4.28;;
23561;SDS011;11959;49.418;8.728;2023-02-28T07:08:05;9.00;;;5.07;;
23561;SDS011;11959;49.418;8.728;2023-02-28T07:10:31;8.02;;;4.88;;
23561;SDS011;11959;49.418;8.728;2023-02-28T07:13:02;8.13;;;4.57;;
23561;SDS011;11959;49.418;8.728;2023-02-28T07:15:29;6.88;;;4.97;;
23561;SDS011;11959;49.418;8.728;2023-02-28T07:17:54;6.55;;;4.55;;
23561;SDS011;11959;49.418;8.728;2023-02-28T07:20:21;9.73;;;5.13;;
23561;SDS011;11959;49.418;8.728;2023-02-28T07:22:48;9.63;;;5.00;;
23561;SDS011;11959;49.418;8.728;2023-02-28T07:25:20;6.00;;;3.65;;
23561;SDS011;11959;49.418;8.728;2023-02-28T07:27:50;6.95;;;4.78;;
23561;SDS011;11959;49.418;8.728;2023-02-28T07:30:16;8.93;;;5.00;;
23561;SDS011;11959;49.418;8.728;2023-02-28T07:32:42;9.93;;;5.18;;
23561;SDS011;11959;49.418;8.728;2023-02-28T07:35:08;7.72;;;4.63;;
23561;SDS011;11959;49.418;8.728;2023-02-28T07:37:34;7.65;;;5.20;;
23561;SDS011;11959;49.418;8.728;2023-02-28T07:40:06;8.27;;;5.05;;
23561;SDS011;11959;49.418;8.728;2023-02-28T07:42:33;9.35;;;5.78;;
23561;SDS011;11959;49.418;8.728;2023-02-28T07:45:00;7.03;;;5.20;;
23561;SDS011;11959;49.418;8.728;2023-02-28T07:47:26;8.70;;;4.82;;
23561;SDS011;11959;49.418;8.728;2023-02-28T07:49:53;10.20;;;5.97;;
23561;SDS011;11959;49.418;8.728;2023-02-28T07:52:19;8.68;;;4.75;;
23561;SDS011;11959;49.418;8.728;2023-02-28T07:54:45;7.68;;;5.28;;
23561;SDS011;11959;49.418;8.728;2023-02-28T07:57:10;8.25;;;5.20;;
23561;SDS011;11959;49.418;8.728;2023-02-28T07:59:36;9.02;;;5.82;;
23561;SDS011;11959;49.418;8.728;2023-02-28T08:02:02;9.13;;;5.38;;
23561;SDS011;11959;49.418;8.728;2023-02-28T08:04:27;10.52;;;5.95;;
23561;SDS011;11959;49.418;8.728;2023-02-28T08:06:57;7.95;;;5.13;;
23561;SDS011;11959;49.418;8.728;2023-02-28T08:09:23;7.60;;;5.20;;
23561;SDS011;11959;49.418;8.728;2023-02-28T08:11:49;8.35;;;5.22;;
23561;SDS011;11959;49.418;8.728;2023-02-28T08:14:15;7.78;;;5.50;;
23561;SDS011;11959;49.418;8.728;2023-02-28T08:16:41;7.10;;;5.20;;
23561;SDS011;11959;49.418;8.728;2023-02-28T08:19:07;9.48;;;5.63;;
23561;SDS011;11959;49.418;8.728;2023-02-28T08:21:33;8.18;;;5.28;;
23561;SDS011;11959;49.418;8.728;2023-02-28T08:23:59;9.18;;;5.32;;
23561;SDS011;11959;49.418;8.728;2023-02-28T08:26:25;8.57;;;5.53;;
23561;SDS011;11959;49.418;8.728;2023-02-28T08:28:51;11.15;;;5.72;;
23561;SDS011;11959;49.418;8.728;2023-02-28T08:31:17;8.80;;;5.50;;
23561;SDS011;11959;49.418;8.728;2023-02-28T08:33:43;9.88;;;5.80;;
23561;SDS011;11959;49.418;8.728;2023-02-28T08:36:10;8.90;;;6.03;;
23561;SDS011;11959;49.418;8.728;2023-02-28T08:38:36;9.82;;;5.90;;
23561;SDS011;11959;49.418;8.728;2023-02-28T08:41:04;9.00;;;5.28;;
23561;SDS011;11959;49.418;8.728;2023-02-28T08:43:32;7.38;;;5.15;;
23561;SDS011;11959;49.418;8.728;2023-02-28T08:45:59;7.40;;;5.10;;
23561;SDS011;11959;49.418;8.728;2023-02-28T08:48:28;8.95;;;5.50;;
23561;SDS011;11959;49.418;8.728;2023-02-28T08:50:56;8.77;;;5.63;;
23561;SDS011;11959;49.418;8.728;2023-02-28T08:53:22;9.57;;;5.53;;
23561;SDS011;11959;49.418;8.728;2023-02-28T08:55:54;8.77;;;5.25;;
23561;SDS011;11959;49.418;8.728;2023-02-28T08:58:28;8.55;;;5.25;;
23561;SDS011;11959;49.418;8.728;2023-02-28T09:00:54;8.35;;;6.05;;
23561;SDS011;11959;49.418;8.728;2023-02-28T09:03:20;7.68;;;5.20;;
23561;SDS011;11959;49.418;8.728;2023-02-28T09:05:53;6.88;;;4.95;;
23561;SDS011;11959;49.418;8.728;2023-02-28T09:08:24;8.70;;;5.70;;
23561;SDS011;11959;49.418;8.728;2023-02-28T09:10:51;8.77;;;5.68;;
23561;SDS011;11959;49.418;8.728;2023-02-28T09:13:18;7.40;;;5.53;;
23561;SDS011;11959;49.418;8.728;2023-02-28T09:15:44;8.63;;;5.47;;
23561;SDS011;11959;49.418;8.728;2023-02-28T09:18:10;10.50;;;6.28;;
23561;SDS011;11959;49.418;8.728;2023-02-28T09:20:39;9.45;;;6.05;;
23561;SDS011;11959;49.418;8.728;2023-02-28T09:23:06;9.63;;;5.80;;
23561;SDS011;11959;49.418;8.728;2023-02-28T09:25:32;9.43;;;6.13;;
23561;SDS011;11959;49.418;8.728;2023-02-28T09:27:58;9.10;;;5.93;;
23561;SDS011;11959;49.418;8.728;2023-02-28T09:30:24;8.93;;;5.80;;
23561;SDS011;11959;49.418;8.728;2023-02-28T09:32:49;8.35;;;5.78;;
23561;SDS011;11959;49.418;8.728;2023-02-28T09:35:19;7.70;;;5.72;;
23561;SDS011;11959;49.418;8.728;2023-02-28T09:37:49;8.85;;;5.75;;
23561;SDS011;11959;49.418;8.728;2023-02-28T09:40:16;9.75;;;6.63;;
23561;SDS011;11959;49.418;8.728;2023-02-28T09:42:45;8.48;;;5.97;;
23561;SDS011;11959;49.418;8.728;2023-02-28T09:47:48;6.65;;;5.38;;
23561;SDS011;11959;49.418;8.728;2023-02-28T09:52:48;7.95;;;5.43;;
23561;SDS011;11959;49.418;8.728;2023-02-28T09:57:43;10.80;;;6.80;;
23561;SDS011;11959;49.418;8.728;2023-02-28T10:00:13;8.52;;;6.22;;
23561;SDS011;11959;49.418;8.728;2023-02-28T10:02:46;8.80;;;5.90;;
23561;SDS011;11959;49.418;8.728;2023-02-28T10:05:24;9.25;;;5.78;;
23561;SDS011;11959;49.418;8.728;2023-02-28T10:10:43;9.60;;;5.55;;
23561;SDS011;11959;49.418;8.728;2023-02-28T10:13:23;8.70;;;6.32;;
23561;SDS011;11959;49.418;8.728;2023-02-28T10:15:57;9.73;;;6.25;;
23561;SDS011;11959;49.418;8.728;2023-02-28T10:21:26;9.85;;;6.30;;
23561;SDS011;11959;49.418;8.728;2023-02-28T10:24:01;8.18;;;6.25;;
23561;SDS011;11959;49.418;8.728;2023-02-28T10:26:30;10.40;;;5.85;;
23561;SDS011;11959;49.418;8.728;2023-02-28T10:28:57;8.80;;;5.65;;
23561;SDS011;11959;49.418;8.728;2023-02-28T10:31:23;8.38;;;5.28;;
23561;SDS011;11959;49.418;8.728;2023-02-28T10:33:49;11.13;;;6.63;;
23561;SDS011;11959;49.418;8.728;2023-02-28T10:36:16;8.85;;;5.82;;
23561;SDS011;11959;49.418;8.728;2023-02-28T10:38:44;9.32;;;6.28;;
23561;SDS011;11959;49.418;8.728;2023-02-28T10:41:12;9.32;;;6.13;;
23561;SDS011;11959;49.418;8.728;2023-02-28T10:43:41;8.23;;;5.75;;
23561;SDS011;11959;49.418;8.728;2023-02-28T10:51:01;8.32;;;5.68;;
23561;SDS011;11959;49.418;8.728;2023-02-28T10:56:24;8.45;;;5.78;;
23561;SDS011;11959;49.418;8.728;2023-02-28T11:03:49;9.57;;;6.78;;
23561;SDS011;11959;49.418;8.728;2023-02-28T11:06:39;9.07;;;6.20;;
23561;SDS011;11959;49.418;8.728;2023-02-28T11:09:05;9.10;;;6.28;;
23561;SDS011;11959;49.418;8.728;2023-02-28T11:11:45;9.02;;;6.50;;
23561;SDS011;11959;49.418;8.728;2023-02-28T11:14:19;10.02;;;6.25;;
23561;SDS011;11959;49.418;8.728;2023-02-28T11:16:47;9.07;;;6.13;;
23561;SDS011;11959;49.418;8.728;2023-02-28T11:19:22;9.60;;;6.30;;
23561;SDS011;11959;49.418;8.728;2023-02-28T11:21:55;9.63;;;7.20;;
23561;SDS011;11959;49.418;8.728;2023-02-28T11:24:27;9.75;;;6.82;;
23561;SDS011;11959;49.418;8.728;2023-02-28T11:27:00;11.27;;;6.95;;
23561;SDS011;11959;49.418;8.728;2023-02-28T11:29:28;10.18;;;6.93;;
23561;SDS011;11959;49.418;8.728;2023-02-28T11:34:36;9.05;;;6.90;;
23561;SDS011;11959;49.418;8.728;2023-02-28T11:37:03;10.68;;;7.20;;
23561;SDS011;11959;49.418;8.728;2023-02-28T11:39:31;10.02;;;7.00;;
23561;SDS011;11959;49.418;8.728;2023-02-28T11:50:07;9.82;;;6.90;;
23561;SDS011;11959;49.418;8.728;2023-02-28T11:52:54;10.35;;;6.90;;
23561;SDS011;11959;49.418;8.728;2023-02-28T11:56:17;8.40;;;5.97;;
23561;SDS011;11959;49.418;8.728;2023-02-28T12:06:54;11.05;;;7.78;;
23561;SDS011;11959;49.418;8.728;2023-02-28T12:18:27;9.32;;;7.13;;
23561;SDS011;11959;49.418;8.728;2023-02-28T12:26:46;11.02;;;7.10;;
23561;SDS011;11959;49.418;8.728;2023-02-28T12:29:25;10.07;;;7.38;;
23561;SDS011;11959;49.418;8.728;2023-02-28T12:32:09;10.50;;;7.22;;
23561;SDS011;11959;49.418;8.728;2023-02-28T12:34:44;8.75;;;6.88;;
23561;SDS011;11959;49.418;8.728;2023-02-28T12:37:25;9.98;;;7.10;;
23561;SDS011;11959;49.418;8.728;2023-02-28T12:40:09;10.65;;;6.90;;
23561;SDS011;11959;49.418;8.728;2023-02-28T12:42:41;11.18;;;7.70;;
23561;SDS011;11959;49.418;8.728;2023-02-28T12:47:42;11.52;;;7.22;;
23561;SDS011;11959;49.418;8.728;2023-02-28T12:50:10;12.50;;;8.10;;
23561;SDS011;11959;49.418;8.728;2023-02-28T12:55:21;9.35;;;6.93;;
23561;SDS011;11959;49.418;8.728;2023-02-28T12:58:12;9.88;;;6.93;;
23561;SDS011;11959;49.418;8.728;2023-02-28T13:01:04;8.68;;;6.90;;
23561;SDS011;11959;49.418;8.728;2023-02-28T13:03:44;12.45;;;8.77;;
23561;SDS011;11959;49.418;8.728;2023-02-28T13:09:18;9.57;;;7.40;;
23561;SDS011;11959;49.418;8.728;2023-02-28T13:11:45;11.70;;;8.02;;
23561;SDS011;11959;49.418;8.728;2023-02-28T13:14:35;12.18;;;8.48;;
23561;SDS011;11959;49.418;8.728;2023-02-28T13:17:03;10.88;;;7.93;;
23561;SDS011;11959;49.418;8.728;2023-02-28T13:22:05;11.55;;;7.55;;
23561;SDS011;11959;49.418;8.728;2023-02-28T13:24:45;11.25;;;7.82;;
23561;SDS011;11959;49.418;8.728;2023-02-28T13:27:24;13.63;;;8.60;;
23561;SDS011;11959;49.418;8.728;2023-02-28T13:29:50;10.07;;;7.78;;
23561;SDS011;11959;49.418;8.728;2023-02-28T13:32:32;11.65;;;8.13;;
23561;SDS011;11959;49.418;8.728;2023-02-28T13:37:34;10.63;;;8.18;;
23561;SDS011;11959;49.418;8.728;2023-02-28T13:53:02;10.43;;;7.53;;
23561;SDS011;11959;49.418;8.728;2023-02-28T14:06:17;10.50;;;7.20;;
23561;SDS011;11959;49.418;8.728;2023-02-28T14:11:33;9.00;;;6.88;;
23561;SDS011;11959;49.418;8.728;2023-02-28T14:14:04;10.10;;;8.07;;
23561;SDS011;11959;49.418;8.728;2023-02-28T14:16:36;9.80;;;7.22;;
23561;SDS011;11959;49.418;8.728;2023-02-28T14:19:31;11.95;;;7.47;;
23561;SDS011;11959;49.418;8.728;2023-02-28T14:32:45;10.27;;;7.65;;
23561;SDS011;11959;49.418;8.728;2023-02-28T14:37:51;11.40;;;7.28;;
23561;SDS011;11959;49.418;8.728;2023-02-28T14:40:24;10.43;;;7.85;;
23561;SDS011;11959;49.418;8.728;2023-02-28T14:42:58;11.50;;;7.65;;
23561;SDS011;11959;49.418;8.728;2023-02-28T14:45:26;9.65;;;7.35;;
23561;SDS011;11959;49.418;8.728;2023-02-28T14:47:55;11.65;;;8.20;;
23561;SDS011;11959;49.418;8.728;2023-02-28T14:50:34;11.15;;;7.60;;
23561;SDS011;11959;49.418;8.728;2023-02-28T14:53:01;11.23;;;7.70;;
23561;SDS011;11959;49.418;8.728;2023-02-28T14:55:31;9.60;;;7.38;;
23561;SDS011;11959;49.418;8.728;2023-02-28T14:58:03;9.88;;;8.02;;
23561;SDS011;11959;49.418;8.728;2023-02-28T15:00:53;11.27;;;7.70;;
23561;SDS011;11959;49.418;8.728;2023-02-28T15:03:20;14.70;;;8.57;;
23561;SDS011;11959;49.418;8.728;2023-02-28T15:05:58;12.80;;;7.93;;
23561;SDS011;11959;49.418;8.728;2023-02-28T15:08:29;10.65;;;7.90;;
23561;SDS011;11959;49.418;8.728;2023-02-28T15:11:21;10.55;;;8.15;;
23561;SDS011;11959;49.418;8.728;2023-02-28T15:13:56;12.55;;;7.72;;
23561;SDS011;11959;49.418;8.728;2023-02-28T15:16:25;13.23;;;7.85;;
23561;SDS011;11959;49.418;8.728;2023-02-28T15:19:07;10.02;;;7.60;;
23561;SDS011;11959;49.418;8.728;2023-02-28T15:21:47;11.53;;;7.83;;
23561;SDS011;11959;49.418;8.728;2023-02-28T15:24:20;11.98;;;7.93;;
23561;SDS011;11959;49.418;8.728;2023-02-28T15:26:59;10.18;;;7.85;;
23561;SDS011;11959;49.418;8.728;2023-02-28T15:29:29;10.52;;;7.80;;
23561;SDS011;11959;49.418;8.728;2023-02-28T15:32:00;13.05;;;7.43;;
23561;SDS011;11959;49.418;8.728;2023-02-28T15:34:35;11.10;;;8.15;;
23561;SDS011;11959;49.418;8.728;2023-02-28T15:40:13;9.63;;;7.53;;
23561;SDS011;11959;49.418;8.728;2023-02-28T15:42:58;9.77;;;7.28;;
23561;SDS011;11959;49.418;8.728;2023-02-28T15:45:31;12.07;;;7.55;;
23561;SDS011;11959;49.418;8.728;2023-02-28T15:48:17;13.45;;;7.75;;
23561;SDS011;11959;49.418;8.728;2023-02-28T15:51:02;9.30;;;7.25;;
23561;SDS011;11959;49.418;8.728;2023-02-28T15:53:58;10.88;;;7.28;;
23561;SDS011;11959;49.418;8.728;2023-02-28T15:56:27;12.15;;;7.95;;
23561;SDS011;11959;49.418;8.728;2023-02-28T15:59:16;11.50;;;6.95;;
23561;SDS011;11959;49.418;8.728;2023-02-28T16:01:44;11.32;;;8.05;;
23561;SDS011;11959;49.418;8.728;2023-02-28T16:04:19;11.10;;;7.43;;
23561;SDS011;11959;49.418;8.728;2023-02-28T16:06:45;11.63;;;8.07;;
23561;SDS011;11959;49.418;8.728;2023-02-28T16:09:31;10.20;;;7.13;;
23561;SDS011;11959;49.418;8.728;2023-02-28T16:12:00;9.38;;;7.45;;
23561;SDS011;11959;49.418;8.728;2023-02-28T16:14:27;12.27;;;7.90;;
23561;SDS011;11959;49.418;8.728;2023-02-28T16:17:07;11.02;;;7.35;;
23561;SDS011;11959;49.418;8.728;2023-02-28T16:19:41;11.38;;;7.93;;
23561;SDS011;11959;49.418;8.728;2023-02-28T16:22:07;10.85;;;7.50;;
23561;SDS011;11959;49.418;8.728;2023-02-28T16:24:34;11.18;;;8.25;;
23561;SDS011;11959;49.418;8.728;2023-02-28T16:27:00;11.38;;;7.90;;
23561;SDS011;11959;49.418;8.728;2023-02-28T16:29:33;11.45;;;7.85;;
23561;SDS011;11959;49.418;8.728;2023-02-28T16:32:03;12.05;;;8.02;;
23561;SDS011;11959;49.418;8.728;2023-02-28T16:34:30;11.38;;;8.13;;
23561;SDS011;11959;49.418;8.728;2023-02-28T16:36:56;11.07;;;7.72;;
23561;SDS011;11959;49.418;8.728;2023-02-28T16:39:22;11.15;;;7.47;;
23561;SDS011;11959;49.418;8.728;2023-02-28T16:41:48;9.15;;;6.97;;
23561;SDS011;11959;49.418;8.728;2023-02-28T16:44:29;12.25;;;8.05;;
23561;SDS011;11959;49.418;8.728;2023-02-28T16:46:59;10.77;;;7.80;;
23561;SDS011;11959;49.418;8.728;2023-02-28T16:49:26;10.15;;;7.57;;
23561;SDS011;11959;49.418;8.728;2023-02-28T16:51:52;12.10;;;8.25;;
23561;SDS011;11959;49.418;8.728;2023-02-28T16:54:17;8.80;;;6.80;;
23561;SDS011;11959;49.418;8.728;2023-02-28T16:56:44;10.55;;;7.40;;
23561;SDS011;11959;49.418;8.728;2023-02-28T16:59:12;11.85;;;8.02;;
23561;SDS011;11959;49.418;8.728;2023-02-28T17:01:40;11.25;;;7.70;;
23561;SDS011;11959;49.418;8.728;2023-02-28T17:04:05;12.80;;;7.75;;
23561;SDS011;11959;49.418;8.728;2023-02-28T17:06:31;10.05;;;7.20;;
23561;SDS011;11959;49.418;8.728;2023-02-28T17:08:57;10.00;;;7.68;;
23561;SDS011;11959;49.418;8.728;2023-02-28T17:11:24;14.10;;;7.80;;
23561;SDS011;11959;49.418;8.728;2023-02-28T17:13:50;10.60;;;7.72;;
23561;SDS011;11959;49.418;8.728;2023-02-28T17:16:31;10.73;;;7.43;;
23561;SDS011;11959;49.418;8.728;2023-02-28T17:18:59;10.07;;;7.20;;
23561;SDS011;11959;49.418;8.728;2023-02-28T17:21:27;11.77;;;7.80;;
23561;SDS011;11959;49.418;8.728;2023-02-28T17:23:53;10.60;;;7.32;;
23561;SDS011;11959;49.418;8.728;2023-02-28T17:26:20;10.80;;;6.72;;
23561;SDS011;11959;49.418;8.728;2023-02-28T17:28:47;10.38;;;7.07;;
23561;SDS011;11959;49.418;8.728;2023-02-28T17:31:13;10.10;;;6.78;;
23561;SDS011;11959;49.418;8.728;2023-02-28T17:33:39;11.18;;;6.90;;
23561;SDS011;11959;49.418;8.728;2023-02-28T17:36:05;11.93;;;7.75;;
23561;SDS011;11959;49.418;8.728;2023-02-28T17:38:31;11.18;;;8.05;;